sensor_id;sensor_type;location;lat;lon;timestamp;temperature;humidity
30150;DHT22;16962;48.646;9.026;2022-10-16T00:01:26;14.90;1.00
30150;DHT22;16962;48.646;9.026;2022-10-16T00:04:14;14.80;1.00
30150;DHT22;16962;48.646;9.026;2022-10-16T00:07:01;14.80;1.00
30150;DHT22;16962;48.646;9.026;2022-10-16T00:09:48;14.80;1.00
30150;DHT22;16962;48.646;9.026;2022-10-16T00:12:35;14.80;1.00
30150;DHT22;16962;48.646;9.026;2022-10-16T00:15:23;14.80;1.00
30150;DHT22;16962;48.646;9.026;2022-10-16T00:18:10;14.70;1.00
30150;DHT22;16962;48.646;9.026;2022-10-16T00:21:09;14.70;1.00
30150;DHT22;16962;48.646;9.026;2022-10-16T00:24:03;14.70;1.00
30150;DHT22;16962;48.646;9.026;2022-10-16T00:26:51;14.70;1.00
30150;DHT22;16962;48.646;9.026;2022-10-16T00:29:41;14.70;1.00
30150;DHT22;16962;48.646;9.026;2022-10-16T00:32:28;14.70;1.00
30150;DHT22;16962;48.646;9.026;2022-10-16T00:35:17;14.60;1.00
30150;DHT22;16962;48.646;9.026;2022-10-16T00:38:04;14.50;1.00
30150;DHT22;16962;48.646;9.026;2022-10-16T00:40:52;14.50;1.00
30150;DHT22;16962;48.646;9.026;2022-10-16T00:43:46;14.50;8.90
30150;DHT22;16962;48.646;9.026;2022-10-16T00:46:38;14.50;25.20
30150;DHT22;16962;48.646;9.026;2022-10-16T00:49:28;14.40;41.10
30150;DHT22;16962;48.646;9.026;2022-10-16T00:52:16;14.50;54.30
30150;DHT22;16962;48.646;9.026;2022-10-16T00:55:04;14.50;64.00
30150;DHT22;16962;48.646;9.026;2022-10-16T00:57:57;14.50;66.00
30150;DHT22;16962;48.646;9.026;2022-10-16T01:00:45;14.50;56.80
30150;DHT22;16962;48.646;9.026;2022-10-16T01:03:36;14.50;53.20
30150;DHT22;16962;48.646;9.026;2022-10-16T01:09:13;14.50;55.10
30150;DHT22;16962;48.646;9.026;2022-10-16T01:12:10;14.50;41.70
30150;DHT22;16962;48.646;9.026;2022-10-16T01:15:10;14.60;23.50
30150;DHT22;16962;48.646;9.026;2022-10-16T01:21:02;14.60;6.10
30150;DHT22;16962;48.646;9.026;2022-10-16T01:30:21;14.60;1.00
30150;DHT22;16962;48.646;9.026;2022-10-16T01:33:20;14.60;1.00
30150;DHT22;16962;48.646;9.026;2022-10-16T01:36:21;14.60;1.00
30150;DHT22;16962;48.646;9.026;2022-10-16T01:39:10;14.70;1.00
30150;DHT22;16962;48.646;9.026;2022-10-16T01:42:12;14.70;1.00
30150;DHT22;16962;48.646;9.026;2022-10-16T01:45:05;14.80;1.00
30150;DHT22;16962;48.646;9.026;2022-10-16T01:47:55;14.80;1.00
30150;DHT22;16962;48.646;9.026;2022-10-16T01:50:44;14.80;1.00
30150;DHT22;16962;48.646;9.026;2022-10-16T01:53:32;14.70;1.00
30150;DHT22;16962;48.646;9.026;2022-10-16T01:56:20;14.60;1.00
30150;DHT22;16962;48.646;9.026;2022-10-16T01:59:14;14.60;1.00
30150;DHT22;16962;48.646;9.026;2022-10-16T02:02:07;14.50;1.00
30150;DHT22;16962;48.646;9.026;2022-10-16T02:05:13;14.50;1.00
30150;DHT22;16962;48.646;9.026;2022-10-16T02:08:03;14.40;11.80
30150;DHT22;16962;48.646;9.026;2022-10-16T02:10:51;14.30;84.90
30150;DHT22;16962;48.646;9.026;2022-10-16T02:13:41;14.20;99.90
30150;DHT22;16962;48.646;9.026;2022-10-16T02:16:40;14.10;99.90
30150;DHT22;16962;48.646;9.026;2022-10-16T02:19:27;14.10;99.90
30150;DHT22;16962;48.646;9.026;2022-10-16T02:22:36;14.10;99.90
30150;DHT22;16962;48.646;9.026;2022-10-16T02:25:35;14.10;99.90
30150;DHT22;16962;48.646;9.026;2022-10-16T02:28:37;14.00;99.90
30150;DHT22;16962;48.646;9.026;2022-10-16T02:31:28;14.10;99.90
30150;DHT22;16962;48.646;9.026;2022-10-16T02:34:19;14.10;99.90
30150;DHT22;16962;48.646;9.026;2022-10-16T02:37:08;14.10;99.90
30150;DHT22;16962;48.646;9.026;2022-10-16T02:39:57;14.10;99.90
30150;DHT22;16962;48.646;9.026;2022-10-16T02:42:49;14.10;99.90
30150;DHT22;16962;48.646;9.026;2022-10-16T02:45:40;14.10;99.90
30150;DHT22;16962;48.646;9.026;2022-10-16T02:48:29;14.00;99.90
30150;DHT22;16962;48.646;9.026;2022-10-16T02:51:16;14.00;99.90
30150;DHT22;16962;48.646;9.026;2022-10-16T02:54:03;14.00;99.90
30150;DHT22;16962;48.646;9.026;2022-10-16T02:56:51;14.10;99.90
30150;DHT22;16962;48.646;9.026;2022-10-16T02:59:38;14.00;99.90
30150;DHT22;16962;48.646;9.026;2022-10-16T03:02:26;14.10;99.90
30150;DHT22;16962;48.646;9.026;2022-10-16T03:05:16;14.20;99.90
30150;DHT22;16962;48.646;9.026;2022-10-16T03:08:03;14.20;99.90
30150;DHT22;16962;48.646;9.026;2022-10-16T03:10:51;14.20;99.90
30150;DHT22;16962;48.646;9.026;2022-10-16T03:13:39;14.30;99.90
30150;DHT22;16962;48.646;9.026;2022-10-16T03:16:26;14.40;99.90
30150;DHT22;16962;48.646;9.026;2022-10-16T03:19:13;14.40;99.90
30150;DHT22;16962;48.646;9.026;2022-10-16T03:22:02;14.40;99.90
30150;DHT22;16962;48.646;9.026;2022-10-16T03:24:49;14.30;99.90
30150;DHT22;16962;48.646;9.026;2022-10-16T03:27:36;14.30;99.90
30150;DHT22;16962;48.646;9.026;2022-10-16T03:30:23;14.30;99.90
30150;DHT22;16962;48.646;9.026;2022-10-16T03:33:11;14.30;99.90
30150;DHT22;16962;48.646;9.026;2022-10-16T03:35:58;14.30;99.90
30150;DHT22;16962;48.646;9.026;2022-10-16T03:38:45;14.30;99.90
30150;DHT22;16962;48.646;9.026;2022-10-16T03:41:33;14.30;99.90
30150;DHT22;16962;48.646;9.026;2022-10-16T03:44:20;14.30;99.90
30150;DHT22;16962;48.646;9.026;2022-10-16T03:47:08;14.20;99.90
30150;DHT22;16962;48.646;9.026;2022-10-16T03:49:55;14.30;99.90
30150;DHT22;16962;48.646;9.026;2022-10-16T03:52:43;14.30;99.90
30150;DHT22;16962;48.646;9.026;2022-10-16T03:55:30;14.30;99.90
30150;DHT22;16962;48.646;9.026;2022-10-16T03:58:17;14.30;99.90
30150;DHT22;16962;48.646;9.026;2022-10-16T04:01:04;14.40;99.90
30150;DHT22;16962;48.646;9.026;2022-10-16T04:03:52;14.40;99.90
30150;DHT22;16962;48.646;9.026;2022-10-16T04:06:39;14.40;68.90
30150;DHT22;16962;48.646;9.026;2022-10-16T04:09:26;14.30;48.00
30150;DHT22;16962;48.646;9.026;2022-10-16T04:12:15;14.30;69.50
30150;DHT22;16962;48.646;9.026;2022-10-16T04:15:04;14.20;97.00
30150;DHT22;16962;48.646;9.026;2022-10-16T04:17:52;14.20;99.90
30150;DHT22;16962;48.646;9.026;2022-10-16T04:20:39;14.20;99.90
30150;DHT22;16962;48.646;9.026;2022-10-16T04:23:26;14.30;99.90
30150;DHT22;16962;48.646;9.026;2022-10-16T04:26:13;14.30;98.10
30150;DHT22;16962;48.646;9.026;2022-10-16T04:29:00;14.30;72.20
30150;DHT22;16962;48.646;9.026;2022-10-16T04:31:48;14.20;67.40
30150;DHT22;16962;48.646;9.026;2022-10-16T04:34:39;14.20;92.60
30150;DHT22;16962;48.646;9.026;2022-10-16T04:37:26;14.10;99.90
30150;DHT22;16962;48.646;9.026;2022-10-16T04:40:15;14.20;99.90
30150;DHT22;16962;48.646;9.026;2022-10-16T04:43:03;14.10;99.90
30150;DHT22;16962;48.646;9.026;2022-10-16T04:45:51;14.20;99.90
30150;DHT22;16962;48.646;9.026;2022-10-16T04:48:38;14.20;99.90
30150;DHT22;16962;48.646;9.026;2022-10-16T04:51:26;14.20;99.90
30150;DHT22;16962;48.646;9.026;2022-10-16T04:54:14;14.20;99.90
30150;DHT22;16962;48.646;9.026;2022-10-16T04:57:02;14.20;99.90
30150;DHT22;16962;48.646;9.026;2022-10-16T04:59:49;14.30;99.90
30150;DHT22;16962;48.646;9.026;2022-10-16T05:02:37;14.40;95.80
30150;DHT22;16962;48.646;9.026;2022-10-16T05:05:25;14.40;45.90
30150;DHT22;16962;48.646;9.026;2022-10-16T05:08:16;14.50;1.60
30150;DHT22;16962;48.646;9.026;2022-10-16T05:11:03;14.50;1.00
30150;DHT22;16962;48.646;9.026;2022-10-16T05:13:50;14.60;1.00
30150;DHT22;16962;48.646;9.026;2022-10-16T05:16:41;14.50;1.00
30150;DHT22;16962;48.646;9.026;2022-10-16T05:19:32;14.50;1.00
30150;DHT22;16962;48.646;9.026;2022-10-16T05:22:19;14.30;1.00
30150;DHT22;16962;48.646;9.026;2022-10-16T05:25:06;14.20;1.00
30150;DHT22;16962;48.646;9.026;2022-10-16T05:27:53;14.00;38.30
30150;DHT22;16962;48.646;9.026;2022-10-16T05:30:40;13.90;99.90
30150;DHT22;16962;48.646;9.026;2022-10-16T05:33:27;13.80;99.90
30150;DHT22;16962;48.646;9.026;2022-10-16T05:36:16;13.80;99.90
30150;DHT22;16962;48.646;9.026;2022-10-16T05:39:07;13.90;99.90
30150;DHT22;16962;48.646;9.026;2022-10-16T05:46:05;13.90;99.90
30150;DHT22;16962;48.646;9.026;2022-10-16T05:48:52;13.70;99.90
30150;DHT22;16962;48.646;9.026;2022-10-16T05:51:40;13.60;99.90
30150;DHT22;16962;48.646;9.026;2022-10-16T05:54:28;13.50;1.00
30150;DHT22;16962;48.646;9.026;2022-10-16T05:57:15;13.50;1.00
30150;DHT22;16962;48.646;9.026;2022-10-16T06:00:05;13.60;1.00
30150;DHT22;16962;48.646;9.026;2022-10-16T06:02:53;13.70;29.40
30150;DHT22;16962;48.646;9.026;2022-10-16T06:05:40;13.80;7.90
30150;DHT22;16962;48.646;9.026;2022-10-16T06:08:29;13.90;1.00
30150;DHT22;16962;48.646;9.026;2022-10-16T06:11:21;14.00;1.00
30150;DHT22;16962;48.646;9.026;2022-10-16T06:14:09;14.20;99.90
30150;DHT22;16962;48.646;9.026;2022-10-16T06:16:56;14.40;99.90
30150;DHT22;16962;48.646;9.026;2022-10-16T06:19:45;14.50;99.90
30150;DHT22;16962;48.646;9.026;2022-10-16T06:22:32;14.60;99.90
30150;DHT22;16962;48.646;9.026;2022-10-16T06:25:19;14.70;15.90
30150;DHT22;16962;48.646;9.026;2022-10-16T06:28:07;14.70;1.00
30150;DHT22;16962;48.646;9.026;2022-10-16T06:31:02;14.80;1.00
30150;DHT22;16962;48.646;9.026;2022-10-16T06:33:54;14.80;1.00
30150;DHT22;16962;48.646;9.026;2022-10-16T06:36:42;14.90;1.00
30150;DHT22;16962;48.646;9.026;2022-10-16T06:39:30;15.00;1.00
30150;DHT22;16962;48.646;9.026;2022-10-16T06:42:17;15.10;99.90
30150;DHT22;16962;48.646;9.026;2022-10-16T06:45:05;15.20;99.90
30150;DHT22;16962;48.646;9.026;2022-10-16T06:47:52;15.40;99.90
30150;DHT22;16962;48.646;9.026;2022-10-16T06:50:39;15.40;99.90
30150;DHT22;16962;48.646;9.026;2022-10-16T06:53:28;15.50;99.90
30150;DHT22;16962;48.646;9.026;2022-10-16T06:56:27;15.50;99.90
30150;DHT22;16962;48.646;9.026;2022-10-16T06:59:15;15.50;99.90
30150;DHT22;16962;48.646;9.026;2022-10-16T07:02:07;15.50;99.90
30150;DHT22;16962;48.646;9.026;2022-10-16T07:04:57;15.60;99.90
30150;DHT22;16962;48.646;9.026;2022-10-16T07:07:44;15.60;99.90
30150;DHT22;16962;48.646;9.026;2022-10-16T07:10:32;15.70;99.90
30150;DHT22;16962;48.646;9.026;2022-10-16T07:13:21;15.70;99.90
30150;DHT22;16962;48.646;9.026;2022-10-16T07:16:13;15.80;99.90
30150;DHT22;16962;48.646;9.026;2022-10-16T07:19:02;15.80;99.90
30150;DHT22;16962;48.646;9.026;2022-10-16T07:21:49;15.80;99.90
30150;DHT22;16962;48.646;9.026;2022-10-16T07:24:44;15.80;99.90
30150;DHT22;16962;48.646;9.026;2022-10-16T07:27:37;15.70;99.90
30150;DHT22;16962;48.646;9.026;2022-10-16T07:30:25;15.60;99.90
30150;DHT22;16962;48.646;9.026;2022-10-16T07:33:15;15.60;99.90
30150;DHT22;16962;48.646;9.026;2022-10-16T07:36:11;15.50;99.90
30150;DHT22;16962;48.646;9.026;2022-10-16T07:39:05;15.50;99.90
30150;DHT22;16962;48.646;9.026;2022-10-16T07:41:53;15.50;99.90
30150;DHT22;16962;48.646;9.026;2022-10-16T07:44:40;15.50;99.90
30150;DHT22;16962;48.646;9.026;2022-10-16T07:47:27;15.50;99.90
30150;DHT22;16962;48.646;9.026;2022-10-16T07:50:15;15.60;99.90
30150;DHT22;16962;48.646;9.026;2022-10-16T07:53:02;15.70;99.90
30150;DHT22;16962;48.646;9.026;2022-10-16T07:55:50;15.70;99.90
30150;DHT22;16962;48.646;9.026;2022-10-16T07:58:40;15.70;99.90
30150;DHT22;16962;48.646;9.026;2022-10-16T08:01:27;15.70;99.90
30150;DHT22;16962;48.646;9.026;2022-10-16T08:04:14;15.70;99.90
30150;DHT22;16962;48.646;9.026;2022-10-16T08:07:01;15.70;99.90
30150;DHT22;16962;48.646;9.026;2022-10-16T08:09:49;15.80;99.90
30150;DHT22;16962;48.646;9.026;2022-10-16T08:12:38;15.90;99.90
30150;DHT22;16962;48.646;9.026;2022-10-16T08:15:25;15.90;99.90
30150;DHT22;16962;48.646;9.026;2022-10-16T08:18:15;16.10;99.90
30150;DHT22;16962;48.646;9.026;2022-10-16T08:21:13;16.30;99.90
30150;DHT22;16962;48.646;9.026;2022-10-16T08:24:07;16.60;87.00
30150;DHT22;16962;48.646;9.026;2022-10-16T08:26:54;16.80;20.00
30150;DHT22;16962;48.646;9.026;2022-10-16T08:29:44;16.70;1.00
30150;DHT22;16962;48.646;9.026;2022-10-16T08:32:37;16.80;1.00
30150;DHT22;16962;48.646;9.026;2022-10-16T08:35:34;16.90;1.00
30150;DHT22;16962;48.646;9.026;2022-10-16T08:38:21;16.90;1.00
30150;DHT22;16962;48.646;9.026;2022-10-16T08:47:30;16.90;1.00
30150;DHT22;16962;48.646;9.026;2022-10-16T08:50:24;16.80;1.00
30150;DHT22;16962;48.646;9.026;2022-10-16T08:53:24;16.80;1.00
30150;DHT22;16962;48.646;9.026;2022-10-16T08:56:12;16.90;1.00
30150;DHT22;16962;48.646;9.026;2022-10-16T08:59:00;17.00;1.00
30150;DHT22;16962;48.646;9.026;2022-10-16T09:01:50;17.10;1.00
30150;DHT22;16962;48.646;9.026;2022-10-16T09:04:42;17.20;1.00
30150;DHT22;16962;48.646;9.026;2022-10-16T09:16:39;17.60;1.00
30150;DHT22;16962;48.646;9.026;2022-10-16T09:19:38;17.60;1.00
30150;DHT22;16962;48.646;9.026;2022-10-16T09:22:31;17.70;1.00
30150;DHT22;16962;48.646;9.026;2022-10-16T09:25:21;18.00;1.00
30150;DHT22;16962;48.646;9.026;2022-10-16T09:28:11;18.50;1.00
30150;DHT22;16962;48.646;9.026;2022-10-16T09:30:58;19.90;99.90
30150;DHT22;16962;48.646;9.026;2022-10-16T09:33:57;20.60;99.90
30150;DHT22;16962;48.646;9.026;2022-10-16T09:36:45;21.70;99.90
30150;DHT22;16962;48.646;9.026;2022-10-16T09:39:48;22.20;99.90
30150;DHT22;16962;48.646;9.026;2022-10-16T09:42:36;21.80;99.90
30150;DHT22;16962;48.646;9.026;2022-10-16T09:45:27;21.90;99.90
30150;DHT22;16962;48.646;9.026;2022-10-16T09:48:19;22.30;99.90
30150;DHT22;16962;48.646;9.026;2022-10-16T09:51:24;22.90;99.90
30150;DHT22;16962;48.646;9.026;2022-10-16T09:54:18;23.20;99.90
30150;DHT22;16962;48.646;9.026;2022-10-16T09:57:07;24.50;99.90
30150;DHT22;16962;48.646;9.026;2022-10-16T09:59:58;24.40;99.90
30150;DHT22;16962;48.646;9.026;2022-10-16T10:02:46;23.60;99.90
30150;DHT22;16962;48.646;9.026;2022-10-16T10:05:34;23.70;99.90
30150;DHT22;16962;48.646;9.026;2022-10-16T10:08:27;23.10;99.90
30150;DHT22;16962;48.646;9.026;2022-10-16T10:11:40;22.60;99.90
30150;DHT22;16962;48.646;9.026;2022-10-16T10:14:39;23.40;99.90
30150;DHT22;16962;48.646;9.026;2022-10-16T10:17:28;24.00;99.90
30150;DHT22;16962;48.646;9.026;2022-10-16T10:23:23;24.10;99.90
30150;DHT22;16962;48.646;9.026;2022-10-16T10:26:18;24.30;99.90
30150;DHT22;16962;48.646;9.026;2022-10-16T10:29:38;22.90;99.90
30150;DHT22;16962;48.646;9.026;2022-10-16T10:48:49;21.70;99.90
30150;DHT22;16962;48.646;9.026;2022-10-16T11:04:45;26.00;99.90
30150;DHT22;16962;48.646;9.026;2022-10-16T11:07:41;26.10;94.30
30150;DHT22;16962;48.646;9.026;2022-10-16T11:10:51;25.90;94.80
30150;DHT22;16962;48.646;9.026;2022-10-16T11:16:35;26.10;92.70
30150;DHT22;16962;48.646;9.026;2022-10-16T11:20:04;26.10;78.30
30150;DHT22;16962;48.646;9.026;2022-10-16T11:25:55;26.20;69.40
30150;DHT22;16962;48.646;9.026;2022-10-16T11:28:49;27.80;56.70
30150;DHT22;16962;48.646;9.026;2022-10-16T11:31:46;27.80;45.30
30150;DHT22;16962;48.646;9.026;2022-10-16T11:34:44;28.00;40.10
30150;DHT22;16962;48.646;9.026;2022-10-16T11:37:41;27.70;34.00
30150;DHT22;16962;48.646;9.026;2022-10-16T11:40:37;27.90;29.60
30150;DHT22;16962;48.646;9.026;2022-10-16T11:43:51;27.00;23.10
30150;DHT22;16962;48.646;9.026;2022-10-16T11:46:47;27.10;23.70
30150;DHT22;16962;48.646;9.026;2022-10-16T11:49:47;27.90;23.00
30150;DHT22;16962;48.646;9.026;2022-10-16T11:55:56;29.50;16.40
30150;DHT22;16962;48.646;9.026;2022-10-16T11:59:00;30.30;6.70
30150;DHT22;16962;48.646;9.026;2022-10-16T12:05:23;30.10;1.00
30150;DHT22;16962;48.646;9.026;2022-10-16T12:08:14;29.80;1.00
30150;DHT22;16962;48.646;9.026;2022-10-16T12:11:19;30.30;1.00
30150;DHT22;16962;48.646;9.026;2022-10-16T12:17:26;30.40;1.00
30150;DHT22;16962;48.646;9.026;2022-10-16T12:20:25;29.90;1.00
30150;DHT22;16962;48.646;9.026;2022-10-16T12:23:20;29.30;1.00
30150;DHT22;16962;48.646;9.026;2022-10-16T12:26:10;28.40;1.00
30150;DHT22;16962;48.646;9.026;2022-10-16T12:29:23;27.90;1.00
30150;DHT22;16962;48.646;9.026;2022-10-16T12:32:28;28.60;1.00
30150;DHT22;16962;48.646;9.026;2022-10-16T12:35:34;28.60;1.00
30150;DHT22;16962;48.646;9.026;2022-10-16T12:38:33;28.50;1.00
30150;DHT22;16962;48.646;9.026;2022-10-16T12:41:30;27.70;1.00
30150;DHT22;16962;48.646;9.026;2022-10-16T12:44:24;27.00;1.00
30150;DHT22;16962;48.646;9.026;2022-10-16T12:47:47;26.20;1.00
30150;DHT22;16962;48.646;9.026;2022-10-16T12:50:37;25.80;1.00
30150;DHT22;16962;48.646;9.026;2022-10-16T12:53:26;25.60;1.00
30150;DHT22;16962;48.646;9.026;2022-10-16T12:56:22;25.60;1.00
30150;DHT22;16962;48.646;9.026;2022-10-16T13:16:11;28.70;1.00
30150;DHT22;16962;48.646;9.026;2022-10-16T13:28:13;29.20;1.00
30150;DHT22;16962;48.646;9.026;2022-10-16T13:31:02;29.80;1.00
30150;DHT22;16962;48.646;9.026;2022-10-16T13:33:54;30.30;1.00
30150;DHT22;16962;48.646;9.026;2022-10-16T13:36:50;29.50;1.00
30150;DHT22;16962;48.646;9.026;2022-10-16T13:39:39;28.50;1.00
30150;DHT22;16962;48.646;9.026;2022-10-16T13:42:28;27.70;1.00
30150;DHT22;16962;48.646;9.026;2022-10-16T13:45:21;26.60;1.00
30150;DHT22;16962;48.646;9.026;2022-10-16T13:48:09;25.90;1.00
30150;DHT22;16962;48.646;9.026;2022-10-16T13:53:54;25.40;1.00
30150;DHT22;16962;48.646;9.026;2022-10-16T13:56:41;25.40;1.00
30150;DHT22;16962;48.646;9.026;2022-10-16T13:59:55;25.40;1.00
30150;DHT22;16962;48.646;9.026;2022-10-16T14:02:45;24.90;1.00
30150;DHT22;16962;48.646;9.026;2022-10-16T14:05:56;24.70;1.00
30150;DHT22;16962;48.646;9.026;2022-10-16T14:08:49;24.70;1.00
30150;DHT22;16962;48.646;9.026;2022-10-16T14:11:42;24.50;1.00
30150;DHT22;16962;48.646;9.026;2022-10-16T14:14:35;24.60;1.00
30150;DHT22;16962;48.646;9.026;2022-10-16T14:17:29;24.60;1.00
30150;DHT22;16962;48.646;9.026;2022-10-16T14:20:17;24.50;1.00
30150;DHT22;16962;48.646;9.026;2022-10-16T14:26:13;24.10;1.00
30150;DHT22;16962;48.646;9.026;2022-10-16T14:29:27;24.10;1.00
30150;DHT22;16962;48.646;9.026;2022-10-16T14:32:23;24.10;1.00
30150;DHT22;16962;48.646;9.026;2022-10-16T14:35:32;24.20;1.00
30150;DHT22;16962;48.646;9.026;2022-10-16T14:38:20;24.40;1.00
30150;DHT22;16962;48.646;9.026;2022-10-16T14:41:08;25.00;1.00
30150;DHT22;16962;48.646;9.026;2022-10-16T14:44:01;25.30;1.00
30150;DHT22;16962;48.646;9.026;2022-10-16T14:46:49;25.40;1.00
30150;DHT22;16962;48.646;9.026;2022-10-16T14:49:38;25.50;1.00
30150;DHT22;16962;48.646;9.026;2022-10-16T14:52:28;25.30;1.00
30150;DHT22;16962;48.646;9.026;2022-10-16T14:55:15;25.00;1.00
30150;DHT22;16962;48.646;9.026;2022-10-16T14:58:03;24.80;1.00
30150;DHT22;16962;48.646;9.026;2022-10-16T15:00:51;25.20;1.00
30150;DHT22;16962;48.646;9.026;2022-10-16T15:03:39;25.20;1.00
30150;DHT22;16962;48.646;9.026;2022-10-16T15:06:26;25.60;1.00
30150;DHT22;16962;48.646;9.026;2022-10-16T15:09:13;25.50;1.00
30150;DHT22;16962;48.646;9.026;2022-10-16T15:12:00;25.10;1.00
30150;DHT22;16962;48.646;9.026;2022-10-16T15:14:48;24.60;1.00
30150;DHT22;16962;48.646;9.026;2022-10-16T15:17:42;24.40;1.00
30150;DHT22;16962;48.646;9.026;2022-10-16T15:20:37;24.30;1.00
30150;DHT22;16962;48.646;9.026;2022-10-16T15:23:25;24.40;1.00
30150;DHT22;16962;48.646;9.026;2022-10-16T15:26:48;24.50;1.00
30150;DHT22;16962;48.646;9.026;2022-10-16T15:29:36;25.00;1.00
30150;DHT22;16962;48.646;9.026;2022-10-16T15:32:26;25.20;1.00
30150;DHT22;16962;48.646;9.026;2022-10-16T15:35:16;24.70;1.00
30150;DHT22;16962;48.646;9.026;2022-10-16T15:38:05;24.10;1.00
30150;DHT22;16962;48.646;9.026;2022-10-16T15:40:56;23.70;1.00
30150;DHT22;16962;48.646;9.026;2022-10-16T15:43:43;23.10;1.00
30150;DHT22;16962;48.646;9.026;2022-10-16T15:46:31;22.60;1.00
30150;DHT22;16962;48.646;9.026;2022-10-16T15:49:20;22.10;2.10
30150;DHT22;16962;48.646;9.026;2022-10-16T15:52:07;21.70;10.00
30150;DHT22;16962;48.646;9.026;2022-10-16T15:54:55;21.40;16.80
30150;DHT22;16962;48.646;9.026;2022-10-16T15:57:42;21.10;21.70
30150;DHT22;16962;48.646;9.026;2022-10-16T16:00:30;20.90;26.80
30150;DHT22;16962;48.646;9.026;2022-10-16T16:03:19;20.60;31.60
30150;DHT22;16962;48.646;9.026;2022-10-16T16:06:09;20.40;43.30
30150;DHT22;16962;48.646;9.026;2022-10-16T16:08:58;20.20;52.50
30150;DHT22;16962;48.646;9.026;2022-10-16T16:11:47;20.00;62.10
30150;DHT22;16962;48.646;9.026;2022-10-16T16:14:34;19.80;83.00
30150;DHT22;16962;48.646;9.026;2022-10-16T16:17:22;19.70;99.90
30150;DHT22;16962;48.646;9.026;2022-10-16T16:20:20;19.60;99.90
30150;DHT22;16962;48.646;9.026;2022-10-16T16:23:17;19.40;99.90
30150;DHT22;16962;48.646;9.026;2022-10-16T16:26:27;19.30;99.90
30150;DHT22;16962;48.646;9.026;2022-10-16T16:29:38;19.00;99.90
30150;DHT22;16962;48.646;9.026;2022-10-16T16:32:39;18.80;99.90
30150;DHT22;16962;48.646;9.026;2022-10-16T16:35:34;18.60;99.90
30150;DHT22;16962;48.646;9.026;2022-10-16T16:38:24;18.40;99.90
30150;DHT22;16962;48.646;9.026;2022-10-16T16:41:17;18.20;99.90
30150;DHT22;16962;48.646;9.026;2022-10-16T16:44:19;18.00;99.90
30150;DHT22;16962;48.646;9.026;2022-10-16T16:47:07;17.80;99.90
30150;DHT22;16962;48.646;9.026;2022-10-16T16:50:12;17.70;99.90
30150;DHT22;16962;48.646;9.026;2022-10-16T16:53:20;17.50;99.90
30150;DHT22;16962;48.646;9.026;2022-10-16T16:56:39;17.40;99.90
30150;DHT22;16962;48.646;9.026;2022-10-16T17:08:45;17.10;1.00
30150;DHT22;16962;48.646;9.026;2022-10-16T17:20:13;17.00;1.00
30150;DHT22;16962;48.646;9.026;2022-10-16T17:23:19;16.80;1.00
30150;DHT22;16962;48.646;9.026;2022-10-16T17:26:26;16.60;11.20
30150;DHT22;16962;48.646;9.026;2022-10-16T17:29:27;16.50;64.80
30150;DHT22;16962;48.646;9.026;2022-10-16T17:32:30;16.40;99.90
30150;DHT22;16962;48.646;9.026;2022-10-16T17:35:23;16.40;99.90
30150;DHT22;16962;48.646;9.026;2022-10-16T17:38:14;16.40;99.90
30150;DHT22;16962;48.646;9.026;2022-10-16T17:41:40;16.40;99.90
30150;DHT22;16962;48.646;9.026;2022-10-16T17:44:41;16.40;99.90
30150;DHT22;16962;48.646;9.026;2022-10-16T17:47:34;16.30;99.90
30150;DHT22;16962;48.646;9.026;2022-10-16T17:54:07;16.30;99.90
30150;DHT22;16962;48.646;9.026;2022-10-16T17:56:59;16.50;99.90
30150;DHT22;16962;48.646;9.026;2022-10-16T17:59:47;16.70;48.60
30150;DHT22;16962;48.646;9.026;2022-10-16T18:02:36;16.80;1.00
30150;DHT22;16962;48.646;9.026;2022-10-16T18:05:31;17.00;1.00
30150;DHT22;16962;48.646;9.026;2022-10-16T18:08:20;17.00;1.00
30150;DHT22;16962;48.646;9.026;2022-10-16T18:11:12;17.00;1.00
30150;DHT22;16962;48.646;9.026;2022-10-16T18:14:03;17.00;1.00
30150;DHT22;16962;48.646;9.026;2022-10-16T18:16:58;17.00;1.00
30150;DHT22;16962;48.646;9.026;2022-10-16T18:19:48;16.90;1.00
30150;DHT22;16962;48.646;9.026;2022-10-16T18:22:59;16.90;1.00
30150;DHT22;16962;48.646;9.026;2022-10-16T18:26:06;16.80;1.00
30150;DHT22;16962;48.646;9.026;2022-10-16T18:28:55;16.80;1.00
30150;DHT22;16962;48.646;9.026;2022-10-16T18:31:45;16.80;1.00
30150;DHT22;16962;48.646;9.026;2022-10-16T18:34:33;16.80;1.00
30150;DHT22;16962;48.646;9.026;2022-10-16T18:37:26;16.80;1.00
30150;DHT22;16962;48.646;9.026;2022-10-16T18:40:15;16.80;1.00
30150;DHT22;16962;48.646;9.026;2022-10-16T18:43:03;16.80;1.00
30150;DHT22;16962;48.646;9.026;2022-10-16T18:46:00;16.70;1.00
30150;DHT22;16962;48.646;9.026;2022-10-16T18:48:48;16.60;1.00
30150;DHT22;16962;48.646;9.026;2022-10-16T18:51:39;16.60;1.00
30150;DHT22;16962;48.646;9.026;2022-10-16T18:54:29;16.70;1.00
30150;DHT22;16962;48.646;9.026;2022-10-16T18:57:19;16.70;1.00
30150;DHT22;16962;48.646;9.026;2022-10-16T19:00:07;16.70;1.00
30150;DHT22;16962;48.646;9.026;2022-10-16T19:02:58;16.70;1.00
30150;DHT22;16962;48.646;9.026;2022-10-16T19:05:50;16.80;1.00
30150;DHT22;16962;48.646;9.026;2022-10-16T19:08:38;16.80;1.00
30150;DHT22;16962;48.646;9.026;2022-10-16T19:11:29;16.80;1.00
30150;DHT22;16962;48.646;9.026;2022-10-16T19:14:26;16.70;1.00
30150;DHT22;16962;48.646;9.026;2022-10-16T19:17:17;16.70;1.00
30150;DHT22;16962;48.646;9.026;2022-10-16T19:20:05;16.70;1.00
30150;DHT22;16962;48.646;9.026;2022-10-16T19:22:53;16.60;1.00
30150;DHT22;16962;48.646;9.026;2022-10-16T19:25:43;16.70;1.00
30150;DHT22;16962;48.646;9.026;2022-10-16T19:28:31;16.80;1.00
30150;DHT22;16962;48.646;9.026;2022-10-16T19:31:20;17.10;1.00
30150;DHT22;16962;48.646;9.026;2022-10-16T19:34:09;17.20;99.90
30150;DHT22;16962;48.646;9.026;2022-10-16T19:36:59;17.30;99.90
30150;DHT22;16962;48.646;9.026;2022-10-16T19:39:51;17.30;99.90
30150;DHT22;16962;48.646;9.026;2022-10-16T19:42:42;17.30;99.90
30150;DHT22;16962;48.646;9.026;2022-10-16T19:45:31;17.30;99.90
30150;DHT22;16962;48.646;9.026;2022-10-16T19:48:22;17.20;99.90
30150;DHT22;16962;48.646;9.026;2022-10-16T19:51:18;17.10;99.90
30150;DHT22;16962;48.646;9.026;2022-10-16T19:54:10;17.10;99.90
30150;DHT22;16962;48.646;9.026;2022-10-16T19:56:59;17.00;99.90
30150;DHT22;16962;48.646;9.026;2022-10-16T19:59:53;16.90;99.90
30150;DHT22;16962;48.646;9.026;2022-10-16T20:02:41;16.80;99.90
30150;DHT22;16962;48.646;9.026;2022-10-16T20:05:29;16.80;99.90
30150;DHT22;16962;48.646;9.026;2022-10-16T20:08:17;16.80;99.90
30150;DHT22;16962;48.646;9.026;2022-10-16T20:11:10;16.70;99.90
30150;DHT22;16962;48.646;9.026;2022-10-16T20:13:58;16.60;99.90
30150;DHT22;16962;48.646;9.026;2022-10-16T20:16:46;16.50;99.90
30150;DHT22;16962;48.646;9.026;2022-10-16T20:19:35;16.30;99.90
30150;DHT22;16962;48.646;9.026;2022-10-16T20:22:36;16.20;99.90
30150;DHT22;16962;48.646;9.026;2022-10-16T20:25:24;16.00;1.00
30150;DHT22;16962;48.646;9.026;2022-10-16T20:28:14;15.90;1.00